sensor_id;sensor_type;location;lat;lon;timestamp;P1;durP1;ratioP1;P2;durP2;ratioP2
62110;SDS011;48102;47.526;19.072;2024-01-10T04:40:22;4.80;;;3.83;;
62110;SDS011;48102;47.526;19.072;2024-01-10T04:43:25;20.37;;;4.75;;
62110;SDS011;48102;47.526;19.072;2024-01-10T04:46:29;3.85;;;3.42;;
62110;SDS011;48102;47.526;19.072;2024-01-10T04:49:32;28.42;;;6.62;;
62110;SDS011;48102;47.526;19.072;2024-01-10T04:55:38;5.12;;;4.43;;
62110;SDS011;48102;47.526;19.072;2024-01-10T04:58:41;7.47;;;5.87;;
62110;SDS011;48102;47.526;19.072;2024-01-10T05:01:44;8.57;;;5.43;;
62110;SDS011;48102;47.526;19.072;2024-01-10T05:04:48;8.82;;;5.18;;
62110;SDS011;48102;47.526;19.072;2024-01-10T05:07:52;10.63;;;5.62;;
62110;SDS011;48102;47.526;19.072;2024-01-10T05:10:55;8.93;;;6.55;;
62110;SDS011;48102;47.526;19.072;2024-01-10T05:13:58;5.90;;;4.55;;
62110;SDS011;48102;47.526;19.072;2024-01-10T05:17:02;10.65;;;5.50;;
62110;SDS011;48102;47.526;19.072;2024-01-10T05:20:06;9.18;;;5.30;;
62110;SDS011;48102;47.526;19.072;2024-01-10T05:23:09;8.77;;;5.72;;
62110;SDS011;48102;47.526;19.072;2024-01-10T05:26:13;13.18;;;6.40;;
62110;SDS011;48102;47.526;19.072;2024-01-10T05:29:17;12.43;;;5.85;;
62110;SDS011;48102;47.526;19.072;2024-01-10T05:32:22;8.63;;;6.03;;
62110;SDS011;48102;47.526;19.072;2024-01-10T05:35:26;10.73;;;6.37;;
62110;SDS011;48102;47.526;19.072;2024-01-10T05:38:30;17.87;;;5.93;;
62110;SDS011;48102;47.526;19.072;2024-01-10T05:44:37;13.00;;;4.85;;
62110;SDS011;48102;47.526;19.072;2024-01-10T05:47:42;7.12;;;4.70;;
62110;SDS011;48102;47.526;19.072;2024-01-10T05:50:45;8.60;;;6.60;;
62110;SDS011;48102;47.526;19.072;2024-01-10T05:56:51;12.73;;;6.25;;
62110;SDS011;48102;47.526;19.072;2024-01-10T05:59:54;9.13;;;5.70;;
62110;SDS011;48102;47.526;19.072;2024-01-10T06:02:59;9.60;;;5.40;;
62110;SDS011;48102;47.526;19.072;2024-01-10T06:06:02;12.10;;;5.70;;
62110;SDS011;48102;47.526;19.072;2024-01-10T06:09:07;7.85;;;5.57;;
62110;SDS011;48102;47.526;19.072;2024-01-10T06:12:14;8.98;;;5.95;;
62110;SDS011;48102;47.526;19.072;2024-01-10T06:18:19;7.15;;;4.28;;
62110;SDS011;48102;47.526;19.072;2024-01-10T06:24:26;10.80;;;5.82;;
62110;SDS011;48102;47.526;19.072;2024-01-10T06:27:29;10.60;;;6.30;;
62110;SDS011;48102;47.526;19.072;2024-01-10T06:30:32;11.40;;;5.25;;
62110;SDS011;48102;47.526;19.072;2024-01-10T06:33:35;8.75;;;6.00;;
62110;SDS011;48102;47.526;19.072;2024-01-10T06:36:39;10.52;;;6.07;;
62110;SDS011;48102;47.526;19.072;2024-01-10T06:39:41;8.60;;;4.97;;
62110;SDS011;48102;47.526;19.072;2024-01-10T06:42:48;16.25;;;7.00;;
62110;SDS011;48102;47.526;19.072;2024-01-10T06:45:51;13.50;;;7.12;;
62110;SDS011;48102;47.526;19.072;2024-01-10T06:48:54;14.80;;;7.70;;
62110;SDS011;48102;47.526;19.072;2024-01-10T06:51:59;10.13;;;7.37;;
62110;SDS011;48102;47.526;19.072;2024-01-10T06:55:03;13.45;;;7.25;;
62110;SDS011;48102;47.526;19.072;2024-01-10T06:58:06;11.48;;;6.85;;
62110;SDS011;48102;47.526;19.072;2024-01-10T07:01:13;12.23;;;7.90;;
62110;SDS011;48102;47.526;19.072;2024-01-10T07:04:17;22.23;;;7.45;;
62110;SDS011;48102;47.526;19.072;2024-01-10T07:07:22;11.27;;;7.10;;
62110;SDS011;48102;47.526;19.072;2024-01-10T07:13:30;12.15;;;6.47;;
62110;SDS011;48102;47.526;19.072;2024-01-10T07:16:37;11.55;;;7.40;;
62110;SDS011;48102;47.526;19.072;2024-01-10T07:19:45;9.52;;;6.22;;
62110;SDS011;48102;47.526;19.072;2024-01-10T07:22:49;14.90;;;7.65;;
62110;SDS011;48102;47.526;19.072;2024-01-10T07:25:52;21.58;;;7.57;;
62110;SDS011;48102;47.526;19.072;2024-01-10T07:28:55;12.65;;;7.30;;
62110;SDS011;48102;47.526;19.072;2024-01-10T07:32:00;13.23;;;6.72;;
62110;SDS011;48102;47.526;19.072;2024-01-10T07:35:04;12.70;;;6.93;;
62110;SDS011;48102;47.526;19.072;2024-01-10T07:38:07;10.85;;;6.78;;
62110;SDS011;48102;47.526;19.072;2024-01-10T07:41:11;12.15;;;6.75;;
62110;SDS011;48102;47.526;19.072;2024-01-10T07:44:15;13.00;;;6.62;;
62110;SDS011;48102;47.526;19.072;2024-01-10T07:47:18;10.70;;;6.25;;
62110;SDS011;48102;47.526;19.072;2024-01-10T07:50:22;13.35;;;6.62;;
62110;SDS011;48102;47.526;19.072;2024-01-10T07:53:30;11.27;;;6.95;;
62110;SDS011;48102;47.526;19.072;2024-01-10T07:56:33;8.10;;;6.68;;
62110;SDS011;48102;47.526;19.072;2024-01-10T07:59:36;10.35;;;6.78;;
62110;SDS011;48102;47.526;19.072;2024-01-10T08:02:39;13.55;;;6.20;;
62110;SDS011;48102;47.526;19.072;2024-01-10T08:05:43;17.65;;;7.18;;
62110;SDS011;48102;47.526;19.072;2024-01-10T08:08:46;11.70;;;6.72;;
62110;SDS011;48102;47.526;19.072;2024-01-10T08:11:49;11.63;;;6.82;;
62110;SDS011;48102;47.526;19.072;2024-01-10T08:14:52;19.65;;;8.40;;
62110;SDS011;48102;47.526;19.072;2024-01-10T08:20:58;17.03;;;8.03;;
62110;SDS011;48102;47.526;19.072;2024-01-10T08:24:02;18.65;;;7.90;;
62110;SDS011;48102;47.526;19.072;2024-01-10T08:27:05;12.43;;;7.80;;
62110;SDS011;48102;47.526;19.072;2024-01-10T08:30:09;14.57;;;8.40;;
62110;SDS011;48102;47.526;19.072;2024-01-10T08:33:12;14.15;;;8.70;;
62110;SDS011;48102;47.526;19.072;2024-01-10T08:36:17;15.98;;;9.70;;
62110;SDS011;48102;47.526;19.072;2024-01-10T08:39:20;16.62;;;9.52;;
62110;SDS011;48102;47.526;19.072;2024-01-10T08:42:24;22.30;;;9.57;;
62110;SDS011;48102;47.526;19.072;2024-01-10T08:45:27;29.65;;;11.35;;
62110;SDS011;48102;47.526;19.072;2024-01-10T08:48:31;22.48;;;11.50;;
62110;SDS011;48102;47.526;19.072;2024-01-10T08:51:39;22.67;;;11.60;;
62110;SDS011;48102;47.526;19.072;2024-01-10T08:54:43;19.33;;;10.85;;
62110;SDS011;48102;47.526;19.072;2024-01-10T08:57:46;21.58;;;10.52;;
62110;SDS011;48102;47.526;19.072;2024-01-10T09:00:49;18.23;;;11.45;;
62110;SDS011;48102;47.526;19.072;2024-01-10T09:03:53;22.42;;;12.93;;
62110;SDS011;48102;47.526;19.072;2024-01-10T09:06:56;25.37;;;11.95;;
62110;SDS011;48102;47.526;19.072;2024-01-10T09:09:59;20.33;;;12.50;;
62110;SDS011;48102;47.526;19.072;2024-01-10T09:16:05;22.62;;;12.43;;
62110;SDS011;48102;47.526;19.072;2024-01-10T09:19:09;26.95;;;13.73;;
62110;SDS011;48102;47.526;19.072;2024-01-10T09:22:15;18.08;;;11.57;;
62110;SDS011;48102;47.526;19.072;2024-01-10T09:25:20;19.00;;;12.45;;
62110;SDS011;48102;47.526;19.072;2024-01-10T09:28:23;18.92;;;10.77;;
62110;SDS011;48102;47.526;19.072;2024-01-10T09:34:29;20.62;;;12.13;;
62110;SDS011;48102;47.526;19.072;2024-01-10T09:37:32;23.67;;;11.65;;
62110;SDS011;48102;47.526;19.072;2024-01-10T09:40:36;28.62;;;11.98;;
62110;SDS011;48102;47.526;19.072;2024-01-10T09:43:40;16.65;;;11.60;;
62110;SDS011;48102;47.526;19.072;2024-01-10T09:46:45;17.58;;;11.12;;
62110;SDS011;48102;47.526;19.072;2024-01-10T09:49:50;18.42;;;11.20;;
62110;SDS011;48102;47.526;19.072;2024-01-10T09:52:58;24.55;;;12.43;;
62110;SDS011;48102;47.526;19.072;2024-01-10T09:56:12;25.77;;;11.32;;
62110;SDS011;48102;47.526;19.072;2024-01-10T09:59:15;18.50;;;9.55;;
62110;SDS011;48102;47.526;19.072;2024-01-10T10:02:21;21.42;;;10.70;;
62110;SDS011;48102;47.526;19.072;2024-01-10T10:05:25;34.67;;;11.40;;
62110;SDS011;48102;47.526;19.072;2024-01-10T10:08:29;20.85;;;11.15;;
62110;SDS011;48102;47.526;19.072;2024-01-10T10:11:32;20.73;;;10.88;;
62110;SDS011;48102;47.526;19.072;2024-01-10T10:14:35;15.80;;;10.25;;
62110;SDS011;48102;47.526;19.072;2024-01-10T10:17:38;22.05;;;12.52;;
62110;SDS011;48102;47.526;19.072;2024-01-10T10:20:48;17.73;;;12.52;;
62110;SDS011;48102;47.526;19.072;2024-01-10T10:24:01;17.08;;;10.63;;
62110;SDS011;48102;47.526;19.072;2024-01-10T10:27:09;21.05;;;12.23;;
62110;SDS011;48102;47.526;19.072;2024-01-10T10:30:14;22.05;;;11.15;;
62110;SDS011;48102;47.526;19.072;2024-01-10T10:36:21;18.48;;;10.90;;
62110;SDS011;48102;47.526;19.072;2024-01-10T10:39:24;16.80;;;11.32;;
62110;SDS011;48102;47.526;19.072;2024-01-10T10:42:28;17.87;;;10.60;;
62110;SDS011;48102;47.526;19.072;2024-01-10T10:45:33;17.50;;;11.93;;
62110;SDS011;48102;47.526;19.072;2024-01-10T10:48:38;16.15;;;11.02;;
62110;SDS011;48102;47.526;19.072;2024-01-10T10:51:42;23.02;;;11.73;;
62110;SDS011;48102;47.526;19.072;2024-01-10T10:54:46;13.68;;;10.10;;
62110;SDS011;48102;47.526;19.072;2024-01-10T10:57:50;15.40;;;10.50;;
62110;SDS011;48102;47.526;19.072;2024-01-10T11:01:07;18.17;;;10.50;;
62110;SDS011;48102;47.526;19.072;2024-01-10T11:04:11;18.05;;;11.02;;
62110;SDS011;48102;47.526;19.072;2024-01-10T11:07:16;16.15;;;9.98;;
62110;SDS011;48102;47.526;19.072;2024-01-10T11:10:25;15.70;;;8.93;;
62110;SDS011;48102;47.526;19.072;2024-01-10T11:13:37;21.90;;;10.20;;
62110;SDS011;48102;47.526;19.072;2024-01-10T11:17:26;17.02;;;10.20;;
62110;SDS011;48102;47.526;19.072;2024-01-10T11:24:04;17.40;;;9.52;;
62110;SDS011;48102;47.526;19.072;2024-01-10T11:27:12;14.00;;;8.73;;
62110;SDS011;48102;47.526;19.072;2024-01-10T11:30:29;14.73;;;9.00;;
62110;SDS011;48102;47.526;19.072;2024-01-10T11:34:06;12.25;;;8.20;;
62110;SDS011;48102;47.526;19.072;2024-01-10T11:37:09;16.65;;;8.52;;
62110;SDS011;48102;47.526;19.072;2024-01-10T11:40:16;12.95;;;8.13;;
62110;SDS011;48102;47.526;19.072;2024-01-10T11:43:47;13.02;;;8.20;;
62110;SDS011;48102;47.526;19.072;2024-01-10T11:47:13;16.87;;;8.32;;
62110;SDS011;48102;47.526;19.072;2024-01-10T11:50:18;15.75;;;7.90;;
62110;SDS011;48102;47.526;19.072;2024-01-10T11:53:42;14.95;;;7.37;;
62110;SDS011;48102;47.526;19.072;2024-01-10T11:56:49;15.05;;;7.70;;
62110;SDS011;48102;47.526;19.072;2024-01-10T11:59:53;20.35;;;8.85;;
62110;SDS011;48102;47.526;19.072;2024-01-10T12:02:57;16.87;;;8.05;;
62110;SDS011;48102;47.526;19.072;2024-01-10T12:06:01;13.13;;;8.40;;
62110;SDS011;48102;47.526;19.072;2024-01-10T12:09:04;16.95;;;8.27;;
62110;SDS011;48102;47.526;19.072;2024-01-10T12:12:14;14.32;;;8.48;;
62110;SDS011;48102;47.526;19.072;2024-01-10T12:15:17;18.20;;;8.00;;
62110;SDS011;48102;47.526;19.072;2024-01-10T12:21:24;18.00;;;7.60;;
62110;SDS011;48102;47.526;19.072;2024-01-10T12:24:27;12.07;;;8.15;;
62110;SDS011;48102;47.526;19.072;2024-01-10T12:27:32;15.18;;;8.20;;
62110;SDS011;48102;47.526;19.072;2024-01-10T12:30:35;18.37;;;8.95;;
62110;SDS011;48102;47.526;19.072;2024-01-10T12:33:38;12.43;;;8.93;;
62110;SDS011;48102;47.526;19.072;2024-01-10T12:36:42;17.77;;;8.52;;
62110;SDS011;48102;47.526;19.072;2024-01-10T12:39:49;13.77;;;8.25;;
62110;SDS011;48102;47.526;19.072;2024-01-10T12:43:04;11.60;;;8.07;;
62110;SDS011;48102;47.526;19.072;2024-01-10T12:46:09;12.98;;;8.23;;
62110;SDS011;48102;47.526;19.072;2024-01-10T12:49:16;13.20;;;8.45;;
62110;SDS011;48102;47.526;19.072;2024-01-10T12:52:19;15.88;;;8.35;;
62110;SDS011;48102;47.526;19.072;2024-01-10T12:55:28;12.23;;;8.52;;
62110;SDS011;48102;47.526;19.072;2024-01-10T12:58:32;19.00;;;9.02;;
62110;SDS011;48102;47.526;19.072;2024-01-10T13:01:37;16.23;;;8.25;;
62110;SDS011;48102;47.526;19.072;2024-01-10T13:04:40;13.00;;;7.75;;
62110;SDS011;48102;47.526;19.072;2024-01-10T13:07:43;15.30;;;8.23;;
62110;SDS011;48102;47.526;19.072;2024-01-10T13:10:48;13.05;;;8.00;;
62110;SDS011;48102;47.526;19.072;2024-01-10T13:13:51;18.15;;;8.57;;
62110;SDS011;48102;47.526;19.072;2024-01-10T13:16:54;16.08;;;8.25;;
62110;SDS011;48102;47.526;19.072;2024-01-10T13:20:02;12.82;;;8.00;;
62110;SDS011;48102;47.526;19.072;2024-01-10T13:23:07;13.70;;;7.82;;
62110;SDS011;48102;47.526;19.072;2024-01-10T13:26:11;15.20;;;7.62;;
62110;SDS011;48102;47.526;19.072;2024-01-10T13:29:14;12.93;;;7.70;;
62110;SDS011;48102;47.526;19.072;2024-01-10T13:32:17;16.92;;;8.23;;
62110;SDS011;48102;47.526;19.072;2024-01-10T13:35:20;17.08;;;8.23;;
62110;SDS011;48102;47.526;19.072;2024-01-10T13:38:25;16.02;;;8.43;;
62110;SDS011;48102;47.526;19.072;2024-01-10T13:41:28;13.95;;;7.57;;
62110;SDS011;48102;47.526;19.072;2024-01-10T13:44:32;13.23;;;7.93;;
62110;SDS011;48102;47.526;19.072;2024-01-10T13:47:34;14.98;;;7.97;;
62110;SDS011;48102;47.526;19.072;2024-01-10T13:53:41;16.62;;;8.90;;
62110;SDS011;48102;47.526;19.072;2024-01-10T13:56:44;11.82;;;7.37;;
62110;SDS011;48102;47.526;19.072;2024-01-10T13:59:48;14.93;;;7.60;;
62110;SDS011;48102;47.526;19.072;2024-01-10T14:02:51;12.30;;;7.93;;
62110;SDS011;48102;47.526;19.072;2024-01-10T14:06:01;13.23;;;8.00;;
62110;SDS011;48102;47.526;19.072;2024-01-10T14:09:04;12.25;;;7.62;;
62110;SDS011;48102;47.526;19.072;2024-01-10T14:15:10;9.18;;;7.25;;
62110;SDS011;48102;47.526;19.072;2024-01-10T14:21:16;18.23;;;7.60;;
62110;SDS011;48102;47.526;19.072;2024-01-10T14:24:19;10.88;;;7.60;;
62110;SDS011;48102;47.526;19.072;2024-01-10T14:27:22;11.20;;;6.87;;
62110;SDS011;48102;47.526;19.072;2024-01-10T14:30:25;9.88;;;7.20;;
62110;SDS011;48102;47.526;19.072;2024-01-10T14:33:29;13.07;;;8.88;;
62110;SDS011;48102;47.526;19.072;2024-01-10T14:36:33;15.38;;;7.43;;
62110;SDS011;48102;47.526;19.072;2024-01-10T14:42:41;11.32;;;6.47;;
62110;SDS011;48102;47.526;19.072;2024-01-10T14:45:44;11.50;;;6.87;;
62110;SDS011;48102;47.526;19.072;2024-01-10T14:48:47;16.00;;;6.78;;
62110;SDS011;48102;47.526;19.072;2024-01-10T14:51:51;15.85;;;8.45;;
62110;SDS011;48102;47.526;19.072;2024-01-10T14:54:54;17.33;;;9.40;;
62110;SDS011;48102;47.526;19.072;2024-01-10T14:57:57;15.82;;;9.30;;
62110;SDS011;48102;47.526;19.072;2024-01-10T15:00:59;19.08;;;8.82;;
62110;SDS011;48102;47.526;19.072;2024-01-10T15:04:02;16.98;;;8.95;;
62110;SDS011;48102;47.526;19.072;2024-01-10T15:07:06;17.15;;;9.45;;
62110;SDS011;48102;47.526;19.072;2024-01-10T15:10:10;18.35;;;9.80;;
62110;SDS011;48102;47.526;19.072;2024-01-10T15:13:14;20.23;;;10.02;;
62110;SDS011;48102;47.526;19.072;2024-01-10T15:16:20;21.52;;;10.95;;
62110;SDS011;48102;47.526;19.072;2024-01-10T15:19:23;16.80;;;9.13;;
62110;SDS011;48102;47.526;19.072;2024-01-10T15:22:26;18.17;;;10.43;;
62110;SDS011;48102;47.526;19.072;2024-01-10T15:25:29;20.45;;;11.05;;
62110;SDS011;48102;47.526;19.072;2024-01-10T15:28:32;19.62;;;11.40;;
62110;SDS011;48102;47.526;19.072;2024-01-10T15:31:35;15.63;;;10.32;;
62110;SDS011;48102;47.526;19.072;2024-01-10T15:34:39;20.20;;;10.38;;
62110;SDS011;48102;47.526;19.072;2024-01-10T15:37:43;20.10;;;11.07;;
62110;SDS011;48102;47.526;19.072;2024-01-10T15:40:46;16.37;;;10.32;;
62110;SDS011;48102;47.526;19.072;2024-01-10T15:43:50;18.70;;;10.52;;
62110;SDS011;48102;47.526;19.072;2024-01-10T15:46:53;18.87;;;10.63;;
62110;SDS011;48102;47.526;19.072;2024-01-10T15:50:00;17.17;;;9.95;;
62110;SDS011;48102;47.526;19.072;2024-01-10T15:53:06;18.73;;;11.23;;
62110;SDS011;48102;47.526;19.072;2024-01-10T15:59:12;15.20;;;8.57;;
62110;SDS011;48102;47.526;19.072;2024-01-10T16:02:16;16.37;;;9.55;;
62110;SDS011;48102;47.526;19.072;2024-01-10T16:05:19;17.30;;;9.90;;
62110;SDS011;48102;47.526;19.072;2024-01-10T16:08:22;19.55;;;10.07;;
62110;SDS011;48102;47.526;19.072;2024-01-10T16:14:28;15.55;;;9.95;;
62110;SDS011;48102;47.526;19.072;2024-01-10T16:20:34;21.77;;;10.30;;
62110;SDS011;48102;47.526;19.072;2024-01-10T16:23:37;16.23;;;9.82;;
62110;SDS011;48102;47.526;19.072;2024-01-10T16:29:43;16.87;;;9.85;;
62110;SDS011;48102;47.526;19.072;2024-01-10T16:32:46;19.45;;;9.73;;
